sensor_id;sensor_type;location;lat;lon;timestamp;temperature;humidity
2158;DHT22;41972;48.774;9.282;2022-12-18T00:00:59;-11.00;99.90
2158;DHT22;41972;48.774;9.282;2022-12-18T00:03:25;-10.90;99.90
2158;DHT22;41972;48.774;9.282;2022-12-18T00:05:51;-10.90;99.90
2158;DHT22;41972;48.774;9.282;2022-12-18T00:08:18;-10.90;99.90
2158;DHT22;41972;48.774;9.282;2022-12-18T00:10:46;-10.90;99.90
2158;DHT22;41972;48.774;9.282;2022-12-18T00:13:12;-10.90;99.90
2158;DHT22;41972;48.774;9.282;2022-12-18T00:15:38;-10.80;99.90
2158;DHT22;41972;48.774;9.282;2022-12-18T00:18:05;-10.90;99.90
2158;DHT22;41972;48.774;9.282;2022-12-18T00:20:31;-10.90;99.90
2158;DHT22;41972;48.774;9.282;2022-12-18T00:22:56;-10.80;99.90
2158;DHT22;41972;48.774;9.282;2022-12-18T00:25:22;-10.90;99.90
2158;DHT22;41972;48.774;9.282;2022-12-18T00:27:48;-11.10;99.90
2158;DHT22;41972;48.774;9.282;2022-12-18T00:30:13;-11.10;99.90
2158;DHT22;41972;48.774;9.282;2022-12-18T00:32:39;-10.90;99.90
2158;DHT22;41972;48.774;9.282;2022-12-18T00:35:06;-10.90;99.90
2158;DHT22;41972;48.774;9.282;2022-12-18T00:37:33;-10.90;99.90
2158;DHT22;41972;48.774;9.282;2022-12-18T00:39:59;-10.90;99.90
2158;DHT22;41972;48.774;9.282;2022-12-18T00:42:24;-10.90;99.90
2158;DHT22;41972;48.774;9.282;2022-12-18T00:45:09;-10.80;99.90
2158;DHT22;41972;48.774;9.282;2022-12-18T00:47:35;-10.80;99.90
2158;DHT22;41972;48.774;9.282;2022-12-18T00:50:00;-10.80;99.90
2158;DHT22;41972;48.774;9.282;2022-12-18T00:52:26;-10.90;99.90
2158;DHT22;41972;48.774;9.282;2022-12-18T00:54:52;-10.80;99.90
2158;DHT22;41972;48.774;9.282;2022-12-18T00:57:17;-10.80;99.90
2158;DHT22;41972;48.774;9.282;2022-12-18T00:59:43;-10.80;99.90
2158;DHT22;41972;48.774;9.282;2022-12-18T01:02:08;-10.80;99.90
2158;DHT22;41972;48.774;9.282;2022-12-18T01:04:34;-10.70;99.90
2158;DHT22;41972;48.774;9.282;2022-12-18T01:07:01;-10.70;99.90
2158;DHT22;41972;48.774;9.282;2022-12-18T01:09:26;-10.60;99.90
2158;DHT22;41972;48.774;9.282;2022-12-18T01:11:52;-10.60;99.90
2158;DHT22;41972;48.774;9.282;2022-12-18T01:14:17;-10.50;99.90
2158;DHT22;41972;48.774;9.282;2022-12-18T01:16:43;-10.50;99.90
2158;DHT22;41972;48.774;9.282;2022-12-18T01:19:09;-10.40;99.90
2158;DHT22;41972;48.774;9.282;2022-12-18T01:21:35;-10.20;99.90
2158;DHT22;41972;48.774;9.282;2022-12-18T01:24:00;-10.20;99.90
2158;DHT22;41972;48.774;9.282;2022-12-18T01:26:26;-10.10;99.90
2158;DHT22;41972;48.774;9.282;2022-12-18T01:28:55;-10.00;99.90
2158;DHT22;41972;48.774;9.282;2022-12-18T01:31:22;-10.00;99.90
2158;DHT22;41972;48.774;9.282;2022-12-18T01:33:49;-10.00;99.90
2158;DHT22;41972;48.774;9.282;2022-12-18T01:38:45;-10.10;99.90
2158;DHT22;41972;48.774;9.282;2022-12-18T01:41:12;-10.00;99.90
2158;DHT22;41972;48.774;9.282;2022-12-18T01:46:16;-9.80;99.90
2158;DHT22;41972;48.774;9.282;2022-12-18T01:48:42;-9.90;99.90
2158;DHT22;41972;48.774;9.282;2022-12-18T01:51:10;-9.80;99.90
2158;DHT22;41972;48.774;9.282;2022-12-18T01:53:37;-9.80;99.90
2158;DHT22;41972;48.774;9.282;2022-12-18T01:56:04;-9.80;99.90
2158;DHT22;41972;48.774;9.282;2022-12-18T01:58:40;-9.80;99.90
2158;DHT22;41972;48.774;9.282;2022-12-18T02:01:06;-9.70;99.90
2158;DHT22;41972;48.774;9.282;2022-12-18T02:03:32;-9.80;99.90
2158;DHT22;41972;48.774;9.282;2022-12-18T02:06:15;-9.80;99.90
2158;DHT22;41972;48.774;9.282;2022-12-18T02:08:57;-9.80;99.90
2158;DHT22;41972;48.774;9.282;2022-12-18T02:17:07;-9.90;99.90
2158;DHT22;41972;48.774;9.282;2022-12-18T02:19:45;-9.80;99.90
2158;DHT22;41972;48.774;9.282;2022-12-18T02:27:59;-9.60;99.90
2158;DHT22;41972;48.774;9.282;2022-12-18T02:30:27;-9.50;99.90
2158;DHT22;41972;48.774;9.282;2022-12-18T02:32:56;-9.50;99.90
2158;DHT22;41972;48.774;9.282;2022-12-18T02:35:25;-9.50;99.90
2158;DHT22;41972;48.774;9.282;2022-12-18T02:37:54;-9.50;99.90
2158;DHT22;41972;48.774;9.282;2022-12-18T02:40:22;-9.50;99.90
2158;DHT22;41972;48.774;9.282;2022-12-18T02:42:48;-9.40;99.90
2158;DHT22;41972;48.774;9.282;2022-12-18T02:45:14;-9.50;99.90
2158;DHT22;41972;48.774;9.282;2022-12-18T02:47:43;-9.40;99.90
2158;DHT22;41972;48.774;9.282;2022-12-18T02:58:58;-9.40;99.90
2158;DHT22;41972;48.774;9.282;2022-12-18T03:04:14;-9.60;99.90
2158;DHT22;41972;48.774;9.282;2022-12-18T03:06:43;-9.60;99.90
2158;DHT22;41972;48.774;9.282;2022-12-18T03:09:14;-9.50;99.90
2158;DHT22;41972;48.774;9.282;2022-12-18T03:11:43;-9.50;99.90
2158;DHT22;41972;48.774;9.282;2022-12-18T03:14:30;-9.60;99.90
2158;DHT22;41972;48.774;9.282;2022-12-18T03:17:00;-9.60;99.90
2158;DHT22;41972;48.774;9.282;2022-12-18T03:19:28;-9.40;99.90
2158;DHT22;41972;48.774;9.282;2022-12-18T03:21:56;-9.30;99.90
2158;DHT22;41972;48.774;9.282;2022-12-18T03:24:24;-9.30;99.90
2158;DHT22;41972;48.774;9.282;2022-12-18T03:26:54;-9.30;99.90
2158;DHT22;41972;48.774;9.282;2022-12-18T03:29:31;-9.40;99.90
2158;DHT22;41972;48.774;9.282;2022-12-18T03:32:03;-9.40;99.90
2158;DHT22;41972;48.774;9.282;2022-12-18T03:34:32;-9.50;99.90
2158;DHT22;41972;48.774;9.282;2022-12-18T03:36:59;-9.60;99.90
2158;DHT22;41972;48.774;9.282;2022-12-18T03:39:25;-9.60;99.90
2158;DHT22;41972;48.774;9.282;2022-12-18T03:43:13;-9.70;99.90
2158;DHT22;41972;48.774;9.282;2022-12-18T03:45:09;-9.70;99.90
2158;DHT22;41972;48.774;9.282;2022-12-18T03:48:06;-9.80;99.90
2158;DHT22;41972;48.774;9.282;2022-12-18T03:50:47;-9.80;99.90
2158;DHT22;41972;48.774;9.282;2022-12-18T03:53:26;-9.70;99.90
2158;DHT22;41972;48.774;9.282;2022-12-18T03:55:55;-9.60;99.90
2158;DHT22;41972;48.774;9.282;2022-12-18T03:58:24;-9.20;99.90
2158;DHT22;41972;48.774;9.282;2022-12-18T04:00:52;-9.20;99.90
2158;DHT22;41972;48.774;9.282;2022-12-18T04:03:20;-9.20;99.90
2158;DHT22;41972;48.774;9.282;2022-12-18T04:05:48;-9.10;99.90
2158;DHT22;41972;48.774;9.282;2022-12-18T04:08:15;-9.20;99.90
2158;DHT22;41972;48.774;9.282;2022-12-18T04:10:41;-9.20;99.90
2158;DHT22;41972;48.774;9.282;2022-12-18T04:13:07;-9.10;99.90
2158;DHT22;41972;48.774;9.282;2022-12-18T04:15:34;-9.00;99.90
2158;DHT22;41972;48.774;9.282;2022-12-18T04:18:01;-8.90;99.90
2158;DHT22;41972;48.774;9.282;2022-12-18T04:20:27;-9.00;99.90
2158;DHT22;41972;48.774;9.282;2022-12-18T04:22:52;-8.90;99.90
2158;DHT22;41972;48.774;9.282;2022-12-18T04:25:18;-8.90;99.90
2158;DHT22;41972;48.774;9.282;2022-12-18T04:27:44;-9.00;99.90
2158;DHT22;41972;48.774;9.282;2022-12-18T04:30:09;-9.20;99.90
2158;DHT22;41972;48.774;9.282;2022-12-18T04:32:36;-9.30;99.90
2158;DHT22;41972;48.774;9.282;2022-12-18T04:35:04;-9.40;99.90
2158;DHT22;41972;48.774;9.282;2022-12-18T04:37:31;-9.40;99.90
2158;DHT22;41972;48.774;9.282;2022-12-18T04:39:57;-9.40;99.90
2158;DHT22;41972;48.774;9.282;2022-12-18T04:42:22;-9.50;99.90
2158;DHT22;41972;48.774;9.282;2022-12-18T04:44:48;-9.70;99.90
2158;DHT22;41972;48.774;9.282;2022-12-18T04:47:14;-9.80;99.90
2158;DHT22;41972;48.774;9.282;2022-12-18T04:49:39;-9.80;99.90
2158;DHT22;41972;48.774;9.282;2022-12-18T04:52:08;-9.80;99.90
2158;DHT22;41972;48.774;9.282;2022-12-18T04:54:33;-9.70;99.90
2158;DHT22;41972;48.774;9.282;2022-12-18T04:56:59;-9.30;99.90
2158;DHT22;41972;48.774;9.282;2022-12-18T04:59:24;-9.10;99.90
2158;DHT22;41972;48.774;9.282;2022-12-18T05:01:50;-8.80;99.90
2158;DHT22;41972;48.774;9.282;2022-12-18T05:04:17;-8.60;99.90
2158;DHT22;41972;48.774;9.282;2022-12-18T05:06:42;-8.70;99.90
2158;DHT22;41972;48.774;9.282;2022-12-18T05:09:08;-8.60;99.90
2158;DHT22;41972;48.774;9.282;2022-12-18T05:11:33;-8.90;99.90
2158;DHT22;41972;48.774;9.282;2022-12-18T05:13:59;-9.50;99.90
2158;DHT22;41972;48.774;9.282;2022-12-18T05:16:24;-9.80;99.90
2158;DHT22;41972;48.774;9.282;2022-12-18T05:18:50;-10.10;99.90
2158;DHT22;41972;48.774;9.282;2022-12-18T05:21:16;-10.20;99.90
2158;DHT22;41972;48.774;9.282;2022-12-18T05:23:42;-10.50;99.90
2158;DHT22;41972;48.774;9.282;2022-12-18T05:26:07;-10.60;99.90
2158;DHT22;41972;48.774;9.282;2022-12-18T05:28:35;-10.70;99.90
2158;DHT22;41972;48.774;9.282;2022-12-18T05:31:02;-10.70;99.90
2158;DHT22;41972;48.774;9.282;2022-12-18T05:33:33;-10.70;99.90
2158;DHT22;41972;48.774;9.282;2022-12-18T05:36:00;-10.80;99.90
2158;DHT22;41972;48.774;9.282;2022-12-18T05:38:26;-10.90;99.90
2158;DHT22;41972;48.774;9.282;2022-12-18T05:40:53;-11.00;99.90
2158;DHT22;41972;48.774;9.282;2022-12-18T05:43:20;-11.00;99.90
2158;DHT22;41972;48.774;9.282;2022-12-18T05:45:47;-11.10;99.90
2158;DHT22;41972;48.774;9.282;2022-12-18T05:48:13;-11.10;99.90
2158;DHT22;41972;48.774;9.282;2022-12-18T05:50:40;-11.10;99.90
2158;DHT22;41972;48.774;9.282;2022-12-18T05:53:06;-11.10;99.90
2158;DHT22;41972;48.774;9.282;2022-12-18T05:55:34;-11.10;99.90
2158;DHT22;41972;48.774;9.282;2022-12-18T05:58:01;-11.10;99.90
2158;DHT22;41972;48.774;9.282;2022-12-18T06:00:27;-11.20;99.90
2158;DHT22;41972;48.774;9.282;2022-12-18T06:02:52;-11.20;99.90
2158;DHT22;41972;48.774;9.282;2022-12-18T06:05:18;-11.20;99.90
2158;DHT22;41972;48.774;9.282;2022-12-18T06:07:44;-11.20;99.90
2158;DHT22;41972;48.774;9.282;2022-12-18T06:10:09;-11.20;99.90
2158;DHT22;41972;48.774;9.282;2022-12-18T06:12:35;-11.30;99.90
2158;DHT22;41972;48.774;9.282;2022-12-18T06:15:00;-11.50;99.90
2158;DHT22;41972;48.774;9.282;2022-12-18T06:17:30;-11.50;99.90
2158;DHT22;41972;48.774;9.282;2022-12-18T06:19:55;-11.60;99.90
2158;DHT22;41972;48.774;9.282;2022-12-18T06:22:21;-11.60;99.90
2158;DHT22;41972;48.774;9.282;2022-12-18T06:24:47;-11.60;99.90
2158;DHT22;41972;48.774;9.282;2022-12-18T06:27:12;-11.50;99.90
2158;DHT22;41972;48.774;9.282;2022-12-18T06:29:38;-11.50;99.90
2158;DHT22;41972;48.774;9.282;2022-12-18T06:32:04;-11.60;99.90
2158;DHT22;41972;48.774;9.282;2022-12-18T06:34:31;-11.70;99.90
2158;DHT22;41972;48.774;9.282;2022-12-18T06:36:56;-11.70;99.90
2158;DHT22;41972;48.774;9.282;2022-12-18T06:39:22;-11.70;99.90
2158;DHT22;41972;48.774;9.282;2022-12-18T06:41:47;-11.60;99.90
2158;DHT22;41972;48.774;9.282;2022-12-18T06:44:13;-11.60;99.90
2158;DHT22;41972;48.774;9.282;2022-12-18T06:46:38;-11.80;99.90
2158;DHT22;41972;48.774;9.282;2022-12-18T06:49:04;-11.70;99.90
2158;DHT22;41972;48.774;9.282;2022-12-18T06:51:30;-11.80;99.90
2158;DHT22;41972;48.774;9.282;2022-12-18T06:53:55;-11.80;99.90
2158;DHT22;41972;48.774;9.282;2022-12-18T06:56:21;-11.80;99.90
2158;DHT22;41972;48.774;9.282;2022-12-18T06:58:50;-11.90;99.90
2158;DHT22;41972;48.774;9.282;2022-12-18T07:01:16;-11.80;99.90
2158;DHT22;41972;48.774;9.282;2022-12-18T07:03:42;-11.80;99.90
2158;DHT22;41972;48.774;9.282;2022-12-18T07:06:14;-11.70;99.90
2158;DHT22;41972;48.774;9.282;2022-12-18T07:08:40;-11.60;99.90
2158;DHT22;41972;48.774;9.282;2022-12-18T07:11:05;-11.60;99.90
2158;DHT22;41972;48.774;9.282;2022-12-18T07:13:31;-11.70;99.90
2158;DHT22;41972;48.774;9.282;2022-12-18T07:16:13;-11.70;99.90
2158;DHT22;41972;48.774;9.282;2022-12-18T07:18:39;-11.90;99.90
2158;DHT22;41972;48.774;9.282;2022-12-18T07:21:10;-11.90;99.90
2158;DHT22;41972;48.774;9.282;2022-12-18T07:23:36;-12.00;99.90
2158;DHT22;41972;48.774;9.282;2022-12-18T07:26:07;-12.10;99.90
2158;DHT22;41972;48.774;9.282;2022-12-18T07:28:34;-12.00;99.90
2158;DHT22;41972;48.774;9.282;2022-12-18T07:31:09;-11.90;99.90
2158;DHT22;41972;48.774;9.282;2022-12-18T07:33:43;-11.80;99.90
2158;DHT22;41972;48.774;9.282;2022-12-18T07:36:09;-11.70;99.90
2158;DHT22;41972;48.774;9.282;2022-12-18T07:38:36;-11.60;99.90
2158;DHT22;41972;48.774;9.282;2022-12-18T07:41:09;-11.60;99.90
2158;DHT22;41972;48.774;9.282;2022-12-18T07:43:35;-11.50;99.90
2158;DHT22;41972;48.774;9.282;2022-12-18T07:46:01;-11.50;99.90
2158;DHT22;41972;48.774;9.282;2022-12-18T07:48:28;-11.30;99.90
2158;DHT22;41972;48.774;9.282;2022-12-18T07:50:57;-11.20;99.90
2158;DHT22;41972;48.774;9.282;2022-12-18T07:53:23;-11.20;99.90
2158;DHT22;41972;48.774;9.282;2022-12-18T07:55:48;-11.20;99.90
2158;DHT22;41972;48.774;9.282;2022-12-18T07:58:14;-11.10;99.90
2158;DHT22;41972;48.774;9.282;2022-12-18T08:00:39;-11.00;99.90
2158;DHT22;41972;48.774;9.282;2022-12-18T08:03:05;-10.90;99.90
2158;DHT22;41972;48.774;9.282;2022-12-18T08:05:30;-10.80;99.90
2158;DHT22;41972;48.774;9.282;2022-12-18T08:07:56;-10.80;99.90
2158;DHT22;41972;48.774;9.282;2022-12-18T08:10:23;-10.80;99.90
2158;DHT22;41972;48.774;9.282;2022-12-18T08:12:50;-10.90;99.90
2158;DHT22;41972;48.774;9.282;2022-12-18T08:15:16;-10.90;99.90
2158;DHT22;41972;48.774;9.282;2022-12-18T08:17:41;-10.80;99.90
2158;DHT22;41972;48.774;9.282;2022-12-18T08:20:08;-10.60;99.90
2158;DHT22;41972;48.774;9.282;2022-12-18T08:22:34;-10.60;99.90
2158;DHT22;41972;48.774;9.282;2022-12-18T08:25:04;-10.40;99.90
2158;DHT22;41972;48.774;9.282;2022-12-18T08:27:30;-10.40;99.90
2158;DHT22;41972;48.774;9.282;2022-12-18T08:29:56;-10.30;99.90
2158;DHT22;41972;48.774;9.282;2022-12-18T08:32:22;-10.40;99.90
2158;DHT22;41972;48.774;9.282;2022-12-18T08:34:53;-10.40;99.90
2158;DHT22;41972;48.774;9.282;2022-12-18T08:37:19;-10.30;99.90
2158;DHT22;41972;48.774;9.282;2022-12-18T08:39:44;-10.10;99.90
2158;DHT22;41972;48.774;9.282;2022-12-18T08:42:10;-9.90;99.90
2158;DHT22;41972;48.774;9.282;2022-12-18T08:44:54;-10.10;99.90
2158;DHT22;41972;48.774;9.282;2022-12-18T08:47:20;-9.80;99.90
2158;DHT22;41972;48.774;9.282;2022-12-18T08:49:45;-9.10;99.90
2158;DHT22;41972;48.774;9.282;2022-12-18T08:52:11;-7.80;99.90
2158;DHT22;41972;48.774;9.282;2022-12-18T08:54:36;-7.40;99.90
2158;DHT22;41972;48.774;9.282;2022-12-18T08:57:02;-6.20;99.90
2158;DHT22;41972;48.774;9.282;2022-12-18T08:59:28;-6.10;99.90
2158;DHT22;41972;48.774;9.282;2022-12-18T09:01:54;-5.00;99.90
2158;DHT22;41972;48.774;9.282;2022-12-18T09:04:20;-3.80;99.90
2158;DHT22;41972;48.774;9.282;2022-12-18T09:06:46;-2.40;99.90
2158;DHT22;41972;48.774;9.282;2022-12-18T09:09:11;-1.70;99.90
2158;DHT22;41972;48.774;9.282;2022-12-18T09:11:37;-0.30;99.90
2158;DHT22;41972;48.774;9.282;2022-12-18T09:14:03;1.00;99.90
2158;DHT22;41972;48.774;9.282;2022-12-18T09:16:29;0.80;99.90
2158;DHT22;41972;48.774;9.282;2022-12-18T09:18:55;-0.40;99.90
2158;DHT22;41972;48.774;9.282;2022-12-18T09:21:26;-2.00;99.90
2158;DHT22;41972;48.774;9.282;2022-12-18T09:23:53;-2.90;99.90
2158;DHT22;41972;48.774;9.282;2022-12-18T09:26:20;-4.10;99.90
2158;DHT22;41972;48.774;9.282;2022-12-18T09:28:45;-3.70;99.90
2158;DHT22;41972;48.774;9.282;2022-12-18T09:31:12;-2.30;99.90
2158;DHT22;41972;48.774;9.282;2022-12-18T09:33:38;-1.50;99.90
2158;DHT22;41972;48.774;9.282;2022-12-18T09:36:06;-1.40;99.90
2158;DHT22;41972;48.774;9.282;2022-12-18T09:38:32;-2.80;99.90
2158;DHT22;41972;48.774;9.282;2022-12-18T09:41:03;-3.60;99.90
2158;DHT22;41972;48.774;9.282;2022-12-18T09:43:35;-3.60;99.90
2158;DHT22;41972;48.774;9.282;2022-12-18T09:46:06;-4.10;99.90
2158;DHT22;41972;48.774;9.282;2022-12-18T09:48:36;-4.80;99.90
2158;DHT22;41972;48.774;9.282;2022-12-18T09:51:20;-4.70;99.90
2158;DHT22;41972;48.774;9.282;2022-12-18T09:53:52;-5.60;99.90
2158;DHT22;41972;48.774;9.282;2022-12-18T09:56:19;-5.30;99.90
2158;DHT22;41972;48.774;9.282;2022-12-18T09:58:59;-5.10;99.90
2158;DHT22;41972;48.774;9.282;2022-12-18T10:01:26;-5.00;99.90
2158;DHT22;41972;48.774;9.282;2022-12-18T10:03:53;-4.40;99.90
2158;DHT22;41972;48.774;9.282;2022-12-18T10:06:32;-3.90;99.90
2158;DHT22;41972;48.774;9.282;2022-12-18T10:12:31;1.00;99.90
2158;DHT22;41972;48.774;9.282;2022-12-18T10:17:51;1.20;99.90
2158;DHT22;41972;48.774;9.282;2022-12-18T10:23:33;0.30;99.90
2158;DHT22;41972;48.774;9.282;2022-12-18T10:26:06;-0.10;99.90
2158;DHT22;41972;48.774;9.282;2022-12-18T10:28:35;2.30;99.90
2158;DHT22;41972;48.774;9.282;2022-12-18T10:31:01;5.80;99.90
2158;DHT22;41972;48.774;9.282;2022-12-18T10:33:30;7.00;99.90
2158;DHT22;41972;48.774;9.282;2022-12-18T10:35:57;9.10;99.90
2158;DHT22;41972;48.774;9.282;2022-12-18T10:38:26;10.70;93.00
2158;DHT22;41972;48.774;9.282;2022-12-18T10:43:36;12.40;72.40
2158;DHT22;41972;48.774;9.282;2022-12-18T10:46:13;12.40;65.40
2158;DHT22;41972;48.774;9.282;2022-12-18T10:49:07;12.90;55.30
2158;DHT22;41972;48.774;9.282;2022-12-18T10:51:43;12.30;39.20
2158;DHT22;41972;48.774;9.282;2022-12-18T10:54:18;13.00;45.20
2158;DHT22;41972;48.774;9.282;2022-12-18T10:56:45;12.20;34.10
2158;DHT22;41972;48.774;9.282;2022-12-18T10:59:13;12.20;37.70
2158;DHT22;41972;48.774;9.282;2022-12-18T11:01:48;10.60;28.30
2158;DHT22;41972;48.774;9.282;2022-12-18T11:04:20;9.80;31.00
2158;DHT22;41972;48.774;9.282;2022-12-18T11:06:54;9.00;31.20
2158;DHT22;41972;48.774;9.282;2022-12-18T11:09:22;8.80;34.20
2158;DHT22;41972;48.774;9.282;2022-12-18T11:11:53;7.10;33.10
2158;DHT22;41972;48.774;9.282;2022-12-18T11:16:49;5.10;38.00
2158;DHT22;41972;48.774;9.282;2022-12-18T11:19:34;3.50;41.20
2158;DHT22;41972;48.774;9.282;2022-12-18T11:22:01;2.60;46.10
2158;DHT22;41972;48.774;9.282;2022-12-18T11:24:32;1.70;47.90
2158;DHT22;41972;48.774;9.282;2022-12-18T11:27:04;0.70;55.60
2158;DHT22;41972;48.774;9.282;2022-12-18T11:29:34;0.50;60.10
2158;DHT22;41972;48.774;9.282;2022-12-18T11:32:31;0.80;67.80
2158;DHT22;41972;48.774;9.282;2022-12-18T11:37:53;-0.20;79.10
2158;DHT22;41972;48.774;9.282;2022-12-18T11:40:30;-0.50;86.70
2158;DHT22;41972;48.774;9.282;2022-12-18T11:43:18;-0.40;90.90
2158;DHT22;41972;48.774;9.282;2022-12-18T11:45:53;-0.30;94.70
2158;DHT22;41972;48.774;9.282;2022-12-18T11:48:25;-0.20;95.20
2158;DHT22;41972;48.774;9.282;2022-12-18T11:50:54;-0.80;95.80
2158;DHT22;41972;48.774;9.282;2022-12-18T11:53:21;-0.70;97.90
2158;DHT22;41972;48.774;9.282;2022-12-18T12:04:14;-0.70;99.90
2158;DHT22;41972;48.774;9.282;2022-12-18T12:07:12;-1.20;99.90
2158;DHT22;41972;48.774;9.282;2022-12-18T12:10:03;-1.20;99.90
2158;DHT22;41972;48.774;9.282;2022-12-18T12:12:53;-0.70;99.90
2158;DHT22;41972;48.774;9.282;2022-12-18T12:18:40;-1.90;99.90
2158;DHT22;41972;48.774;9.282;2022-12-18T12:21:28;-2.30;99.90
2158;DHT22;41972;48.774;9.282;2022-12-18T12:24:33;-2.00;99.90
2158;DHT22;41972;48.774;9.282;2022-12-18T12:29:37;-1.40;99.90
2158;DHT22;41972;48.774;9.282;2022-12-18T12:34:51;-1.40;99.90
2158;DHT22;41972;48.774;9.282;2022-12-18T12:40:19;-1.10;99.90
2158;DHT22;41972;48.774;9.282;2022-12-18T12:42:55;-1.10;99.90
2158;DHT22;41972;48.774;9.282;2022-12-18T12:45:49;-1.20;99.90
2158;DHT22;41972;48.774;9.282;2022-12-18T12:51:12;-1.70;99.90
2158;DHT22;41972;48.774;9.282;2022-12-18T12:53:39;-1.90;99.90
2158;DHT22;41972;48.774;9.282;2022-12-18T12:56:08;-2.00;99.90
2158;DHT22;41972;48.774;9.282;2022-12-18T13:06:43;-1.30;99.90
2158;DHT22;41972;48.774;9.282;2022-12-18T13:09:11;-1.00;99.90
2158;DHT22;41972;48.774;9.282;2022-12-18T13:11:47;-1.10;99.90
2158;DHT22;41972;48.774;9.282;2022-12-18T13:14:37;-0.80;99.90
2158;DHT22;41972;48.774;9.282;2022-12-18T13:19:50;-0.80;99.90
2158;DHT22;41972;48.774;9.282;2022-12-18T13:22:34;-0.50;99.90
2158;DHT22;41972;48.774;9.282;2022-12-18T13:25:00;-0.40;99.90
2158;DHT22;41972;48.774;9.282;2022-12-18T13:36:09;-1.60;99.90
2158;DHT22;41972;48.774;9.282;2022-12-18T13:38:39;-1.20;99.90
2158;DHT22;41972;48.774;9.282;2022-12-18T13:43:45;-0.30;99.90
2158;DHT22;41972;48.774;9.282;2022-12-18T13:51:40;-0.90;99.90
2158;DHT22;41972;48.774;9.282;2022-12-18T13:54:37;-1.00;99.90
2158;DHT22;41972;48.774;9.282;2022-12-18T13:57:05;-1.10;99.90
2158;DHT22;41972;48.774;9.282;2022-12-18T13:59:48;-1.00;99.90
2158;DHT22;41972;48.774;9.282;2022-12-18T14:02:15;-0.70;99.90
2158;DHT22;41972;48.774;9.282;2022-12-18T14:04:47;-0.40;99.90
2158;DHT22;41972;48.774;9.282;2022-12-18T14:07:21;-0.50;99.90
2158;DHT22;41972;48.774;9.282;2022-12-18T14:09:51;-0.80;99.90
2158;DHT22;41972;48.774;9.282;2022-12-18T14:12:32;-0.90;99.90
2158;DHT22;41972;48.774;9.282;2022-12-18T14:20:24;-1.60;99.90
2158;DHT22;41972;48.774;9.282;2022-12-18T14:22:50;-1.80;99.90
2158;DHT22;41972;48.774;9.282;2022-12-18T14:25:19;-1.90;99.90
2158;DHT22;41972;48.774;9.282;2022-12-18T14:30:39;-2.50;99.90
2158;DHT22;41972;48.774;9.282;2022-12-18T14:35:35;-2.50;99.90
2158;DHT22;41972;48.774;9.282;2022-12-18T14:40:43;-2.90;99.90
2158;DHT22;41972;48.774;9.282;2022-12-18T14:43:12;-3.30;99.90
2158;DHT22;41972;48.774;9.282;2022-12-18T14:48:18;-3.70;99.90
2158;DHT22;41972;48.774;9.282;2022-12-18T14:50:45;-3.70;99.90
2158;DHT22;41972;48.774;9.282;2022-12-18T14:53:28;-3.70;99.90
2158;DHT22;41972;48.774;9.282;2022-12-18T14:55:55;-3.80;99.90
2158;DHT22;41972;48.774;9.282;2022-12-18T14:58:21;-3.90;99.90
2158;DHT22;41972;48.774;9.282;2022-12-18T15:00:47;-4.00;99.90
2158;DHT22;41972;48.774;9.282;2022-12-18T15:03:18;-4.10;99.90
2158;DHT22;41972;48.774;9.282;2022-12-18T15:05:45;-4.30;99.90
2158;DHT22;41972;48.774;9.282;2022-12-18T15:08:34;-4.50;99.90
2158;DHT22;41972;48.774;9.282;2022-12-18T15:11:00;-4.60;99.90
2158;DHT22;41972;48.774;9.282;2022-12-18T15:13:27;-4.60;99.90
2158;DHT22;41972;48.774;9.282;2022-12-18T15:15:54;-4.70;99.90
2158;DHT22;41972;48.774;9.282;2022-12-18T15:18:31;-4.80;99.90
2158;DHT22;41972;48.774;9.282;2022-12-18T15:21:08;-5.00;99.90
2158;DHT22;41972;48.774;9.282;2022-12-18T15:26:10;-5.00;99.90
2158;DHT22;41972;48.774;9.282;2022-12-18T15:28:37;-5.00;99.90
2158;DHT22;41972;48.774;9.282;2022-12-18T15:33:38;-5.00;99.90
2158;DHT22;41972;48.774;9.282;2022-12-18T15:36:08;-5.00;99.90
2158;DHT22;41972;48.774;9.282;2022-12-18T15:38:34;-5.00;99.90
2158;DHT22;41972;48.774;9.282;2022-12-18T15:41:00;-5.00;99.90
2158;DHT22;41972;48.774;9.282;2022-12-18T15:43:26;-5.10;99.90
2158;DHT22;41972;48.774;9.282;2022-12-18T15:46:13;-5.10;99.90
2158;DHT22;41972;48.774;9.282;2022-12-18T15:48:41;-4.90;99.90
2158;DHT22;41972;48.774;9.282;2022-12-18T15:51:16;-5.00;99.90
2158;DHT22;41972;48.774;9.282;2022-12-18T15:53:42;-5.10;99.90
2158;DHT22;41972;48.774;9.282;2022-12-18T15:56:12;-5.00;99.90
2158;DHT22;41972;48.774;9.282;2022-12-18T15:58:56;-5.20;99.90
2158;DHT22;41972;48.774;9.282;2022-12-18T16:01:24;-5.40;99.90
2158;DHT22;41972;48.774;9.282;2022-12-18T16:03:50;-5.60;99.90
2158;DHT22;41972;48.774;9.282;2022-12-18T16:06:16;-5.50;99.90
2158;DHT22;41972;48.774;9.282;2022-12-18T16:08:41;-5.70;99.90
2158;DHT22;41972;48.774;9.282;2022-12-18T16:14:23;-5.50;99.90
2158;DHT22;41972;48.774;9.282;2022-12-18T16:16:53;-5.40;99.90
2158;DHT22;41972;48.774;9.282;2022-12-18T16:19:19;-5.60;99.90
2158;DHT22;41972;48.774;9.282;2022-12-18T16:21:47;-5.50;99.90
2158;DHT22;41972;48.774;9.282;2022-12-18T16:24:18;-5.50;99.90
2158;DHT22;41972;48.774;9.282;2022-12-18T16:26:45;-5.40;99.90
2158;DHT22;41972;48.774;9.282;2022-12-18T16:29:11;-5.50;99.90
2158;DHT22;41972;48.774;9.282;2022-12-18T16:31:37;-5.40;99.90
2158;DHT22;41972;48.774;9.282;2022-12-18T16:34:20;-5.40;99.90
2158;DHT22;41972;48.774;9.282;2022-12-18T16:36:48;-5.60;99.90
2158;DHT22;41972;48.774;9.282;2022-12-18T16:39:13;-5.60;99.90
2158;DHT22;41972;48.774;9.282;2022-12-18T16:41:39;-5.60;99.90
2158;DHT22;41972;48.774;9.282;2022-12-18T16:44:05;-5.70;99.90
2158;DHT22;41972;48.774;9.282;2022-12-18T16:46:30;-5.70;99.90
2158;DHT22;41972;48.774;9.282;2022-12-18T16:48:57;-5.60;99.90
2158;DHT22;41972;48.774;9.282;2022-12-18T16:51:24;-5.50;99.90
2158;DHT22;41972;48.774;9.282;2022-12-18T16:53:49;-5.50;99.90
2158;DHT22;41972;48.774;9.282;2022-12-18T16:56:15;-5.60;99.90
2158;DHT22;41972;48.774;9.282;2022-12-18T16:58:40;-5.30;99.90
2158;DHT22;41972;48.774;9.282;2022-12-18T17:01:07;-5.20;99.90
2158;DHT22;41972;48.774;9.282;2022-12-18T17:03:33;-4.80;99.90
2158;DHT22;41972;48.774;9.282;2022-12-18T17:06:03;-4.70;99.90
2158;DHT22;41972;48.774;9.282;2022-12-18T17:08:29;-4.60;99.90
2158;DHT22;41972;48.774;9.282;2022-12-18T17:10:55;-4.60;99.90
2158;DHT22;41972;48.774;9.282;2022-12-18T17:13:25;-4.50;99.90
2158;DHT22;41972;48.774;9.282;2022-12-18T17:15:51;-4.70;99.90
2158;DHT22;41972;48.774;9.282;2022-12-18T17:18:17;-4.70;99.90
2158;DHT22;41972;48.774;9.282;2022-12-18T17:20:43;-4.60;99.90
2158;DHT22;41972;48.774;9.282;2022-12-18T17:23:08;-4.50;99.90
2158;DHT22;41972;48.774;9.282;2022-12-18T17:25:34;-4.40;99.90
2158;DHT22;41972;48.774;9.282;2022-12-18T17:28:03;-4.40;99.90
2158;DHT22;41972;48.774;9.282;2022-12-18T17:30:29;-4.30;99.90
2158;DHT22;41972;48.774;9.282;2022-12-18T17:32:54;-4.30;99.90
2158;DHT22;41972;48.774;9.282;2022-12-18T17:35:20;-4.20;99.90
2158;DHT22;41972;48.774;9.282;2022-12-18T17:37:46;-4.20;99.90
2158;DHT22;41972;48.774;9.282;2022-12-18T17:40:12;-4.30;99.90
2158;DHT22;41972;48.774;9.282;2022-12-18T17:42:38;-4.20;99.90
2158;DHT22;41972;48.774;9.282;2022-12-18T17:45:04;-4.20;99.90
2158;DHT22;41972;48.774;9.282;2022-12-18T17:47:32;-4.10;99.90
2158;DHT22;41972;48.774;9.282;2022-12-18T17:49:58;-4.10;99.90
2158;DHT22;41972;48.774;9.282;2022-12-18T17:52:24;-4.10;99.90
2158;DHT22;41972;48.774;9.282;2022-12-18T17:54:49;-4.10;99.90